sensor_id;sensor_type;location;lat;lon;timestamp;pressure;altitude;pressure_sealevel;temperature
22322;BMP180;11328;53.928;18.522;2023-08-06T00:02:06;99649.00;;;19.50
22322;BMP180;11328;53.928;18.522;2023-08-06T00:04:33;99650.00;;;19.50
22322;BMP180;11328;53.928;18.522;2023-08-06T00:07:00;99633.00;;;19.30
22322;BMP180;11328;53.928;18.522;2023-08-06T00:09:27;99633.00;;;19.30
22322;BMP180;11328;53.928;18.522;2023-08-06T00:11:54;99627.00;;;19.20
22322;BMP180;11328;53.928;18.522;2023-08-06T00:14:21;99622.00;;;19.20
22322;BMP180;11328;53.928;18.522;2023-08-06T00:16:48;99616.00;;;19.20
22322;BMP180;11328;53.928;18.522;2023-08-06T00:19:15;99606.00;;;19.20
22322;BMP180;11328;53.928;18.522;2023-08-06T00:21:42;99607.00;;;19.30
22322;BMP180;11328;53.928;18.522;2023-08-06T00:24:09;99605.00;;;19.10
22322;BMP180;11328;53.928;18.522;2023-08-06T00:26:36;99599.00;;;19.10
22322;BMP180;11328;53.928;18.522;2023-08-06T00:29:03;99598.00;;;19.10
22322;BMP180;11328;53.928;18.522;2023-08-06T00:31:30;99593.00;;;19.10
22322;BMP180;11328;53.928;18.522;2023-08-06T00:33:57;99579.00;;;19.10
22322;BMP180;11328;53.928;18.522;2023-08-06T00:36:24;99576.00;;;19.10
22322;BMP180;11328;53.928;18.522;2023-08-06T00:38:50;99581.00;;;19.20
22322;BMP180;11328;53.928;18.522;2023-08-06T00:41:18;99582.00;;;19.20
22322;BMP180;11328;53.928;18.522;2023-08-06T00:43:45;99572.00;;;19.20
22322;BMP180;11328;53.928;18.522;2023-08-06T00:46:12;99560.00;;;19.20
22322;BMP180;11328;53.928;18.522;2023-08-06T00:48:41;99563.00;;;19.20
22322;BMP180;11328;53.928;18.522;2023-08-06T00:51:11;99552.00;;;19.20
22322;BMP180;11328;53.928;18.522;2023-08-06T00:53:39;99545.00;;;19.20
22322;BMP180;11328;53.928;18.522;2023-08-06T00:56:08;99535.00;;;19.20
22322;BMP180;11328;53.928;18.522;2023-08-06T00:58:37;99532.00;;;19.30
22322;BMP180;11328;53.928;18.522;2023-08-06T01:01:04;99531.00;;;19.20
22322;BMP180;11328;53.928;18.522;2023-08-06T01:03:32;99530.00;;;19.20
22322;BMP180;11328;53.928;18.522;2023-08-06T01:06:00;99525.00;;;19.20
22322;BMP180;11328;53.928;18.522;2023-08-06T01:08:55;99527.00;;;19.30
22322;BMP180;11328;53.928;18.522;2023-08-06T01:11:55;99523.00;;;19.30
22322;BMP180;11328;53.928;18.522;2023-08-06T01:14:49;99515.00;;;19.30
22322;BMP180;11328;53.928;18.522;2023-08-06T01:17:20;99516.00;;;19.40
22322;BMP180;11328;53.928;18.522;2023-08-06T01:19:47;99516.00;;;19.40
22322;BMP180;11328;53.928;18.522;2023-08-06T01:22:14;99502.00;;;19.40
22322;BMP180;11328;53.928;18.522;2023-08-06T01:24:47;99491.00;;;19.40
22322;BMP180;11328;53.928;18.522;2023-08-06T01:30:12;99472.00;;;19.50
22322;BMP180;11328;53.928;18.522;2023-08-06T01:32:44;99472.00;;;19.70
22322;BMP180;11328;53.928;18.522;2023-08-06T01:35:15;99473.00;;;19.80
22322;BMP180;11328;53.928;18.522;2023-08-06T01:37:43;99468.00;;;19.80
22322;BMP180;11328;53.928;18.522;2023-08-06T01:40:12;99462.00;;;19.70
22322;BMP180;11328;53.928;18.522;2023-08-06T01:42:40;99458.00;;;19.70
22322;BMP180;11328;53.928;18.522;2023-08-06T01:45:08;99449.00;;;19.70
22322;BMP180;11328;53.928;18.522;2023-08-06T01:47:36;99467.00;;;19.80
22322;BMP180;11328;53.928;18.522;2023-08-06T01:50:03;99422.00;;;19.60
22322;BMP180;11328;53.928;18.522;2023-08-06T01:52:30;99422.00;;;19.50
22322;BMP180;11328;53.928;18.522;2023-08-06T01:54:57;99412.00;;;19.50
22322;BMP180;11328;53.928;18.522;2023-08-06T01:57:24;99410.00;;;19.40
22322;BMP180;11328;53.928;18.522;2023-08-06T01:59:51;99403.00;;;19.40
22322;BMP180;11328;53.928;18.522;2023-08-06T02:02:18;99390.00;;;19.40
22322;BMP180;11328;53.928;18.522;2023-08-06T02:04:45;99385.00;;;19.40
22322;BMP180;11328;53.928;18.522;2023-08-06T02:07:12;99371.00;;;19.40
22322;BMP180;11328;53.928;18.522;2023-08-06T02:09:39;99366.00;;;19.50
22322;BMP180;11328;53.928;18.522;2023-08-06T02:12:07;99359.00;;;19.30
22322;BMP180;11328;53.928;18.522;2023-08-06T02:14:34;99330.00;;;19.30
22322;BMP180;11328;53.928;18.522;2023-08-06T02:17:01;99336.00;;;19.30
22322;BMP180;11328;53.928;18.522;2023-08-06T02:19:28;99335.00;;;19.20
22322;BMP180;11328;53.928;18.522;2023-08-06T02:21:56;99317.00;;;18.90
22322;BMP180;11328;53.928;18.522;2023-08-06T02:24:22;99325.00;;;19.20
22322;BMP180;11328;53.928;18.522;2023-08-06T02:26:49;99309.00;;;19.20
22322;BMP180;11328;53.928;18.522;2023-08-06T02:29:18;99305.00;;;19.30
22322;BMP180;11328;53.928;18.522;2023-08-06T02:31:45;99285.00;;;19.30
22322;BMP180;11328;53.928;18.522;2023-08-06T02:34:12;99266.00;;;19.10
22322;BMP180;11328;53.928;18.522;2023-08-06T02:36:39;99264.00;;;19.10
22322;BMP180;11328;53.928;18.522;2023-08-06T02:39:06;99247.00;;;19.10
22322;BMP180;11328;53.928;18.522;2023-08-06T02:41:33;99231.00;;;19.10
22322;BMP180;11328;53.928;18.522;2023-08-06T02:44:00;99222.00;;;19.20
22322;BMP180;11328;53.928;18.522;2023-08-06T02:46:27;99201.00;;;19.20
22322;BMP180;11328;53.928;18.522;2023-08-06T02:48:54;99168.00;;;19.00
22322;BMP180;11328;53.928;18.522;2023-08-06T02:51:21;99164.00;;;19.00
22322;BMP180;11328;53.928;18.522;2023-08-06T02:53:48;99152.00;;;18.90
22322;BMP180;11328;53.928;18.522;2023-08-06T02:56:16;99142.00;;;18.90
22322;BMP180;11328;53.928;18.522;2023-08-06T02:58:43;99130.00;;;18.90
22322;BMP180;11328;53.928;18.522;2023-08-06T03:01:10;99125.00;;;18.90
22322;BMP180;11328;53.928;18.522;2023-08-06T03:03:37;99121.00;;;18.80
22322;BMP180;11328;53.928;18.522;2023-08-06T03:06:04;99130.00;;;18.90
22322;BMP180;11328;53.928;18.522;2023-08-06T03:08:31;99148.00;;;18.90
22322;BMP180;11328;53.928;18.522;2023-08-06T03:10:58;99156.00;;;19.00
22322;BMP180;11328;53.928;18.522;2023-08-06T03:13:25;99145.00;;;18.90
22322;BMP180;11328;53.928;18.522;2023-08-06T03:15:58;99140.00;;;18.90
22322;BMP180;11328;53.928;18.522;2023-08-06T03:18:25;99133.00;;;18.90
22322;BMP180;11328;53.928;18.522;2023-08-06T03:20:55;99136.00;;;19.00
22322;BMP180;11328;53.928;18.522;2023-08-06T03:23:22;99150.00;;;19.00
22322;BMP180;11328;53.928;18.522;2023-08-06T03:25:49;99187.00;;;19.10
22322;BMP180;11328;53.928;18.522;2023-08-06T03:28:16;99192.00;;;19.10
22322;BMP180;11328;53.928;18.522;2023-08-06T03:30:43;99186.00;;;19.20
22322;BMP180;11328;53.928;18.522;2023-08-06T03:33:10;99187.00;;;19.30
22322;BMP180;11328;53.928;18.522;2023-08-06T03:35:37;99185.00;;;19.20
22322;BMP180;11328;53.928;18.522;2023-08-06T03:38:04;99183.00;;;19.30
22322;BMP180;11328;53.928;18.522;2023-08-06T03:40:31;99174.00;;;19.40
22322;BMP180;11328;53.928;18.522;2023-08-06T03:42:58;99176.00;;;19.50
22322;BMP180;11328;53.928;18.522;2023-08-06T03:45:25;99166.00;;;19.50
22322;BMP180;11328;53.928;18.522;2023-08-06T03:47:51;99172.00;;;19.50
22322;BMP180;11328;53.928;18.522;2023-08-06T03:50:18;99160.00;;;19.50
22322;BMP180;11328;53.928;18.522;2023-08-06T03:52:45;99166.00;;;19.50
22322;BMP180;11328;53.928;18.522;2023-08-06T03:55:12;99141.00;;;19.60
22322;BMP180;11328;53.928;18.522;2023-08-06T03:57:39;99147.00;;;19.50
22322;BMP180;11328;53.928;18.522;2023-08-06T04:00:07;99135.00;;;19.50
22322;BMP180;11328;53.928;18.522;2023-08-06T04:02:34;99133.00;;;19.60
22322;BMP180;11328;53.928;18.522;2023-08-06T04:05:01;99132.00;;;19.60
22322;BMP180;11328;53.928;18.522;2023-08-06T04:07:28;99123.00;;;19.70
22322;BMP180;11328;53.928;18.522;2023-08-06T04:09:58;99109.00;;;19.70
22322;BMP180;11328;53.928;18.522;2023-08-06T04:12:27;99079.00;;;19.80
22322;BMP180;11328;53.928;18.522;2023-08-06T04:14:55;99065.00;;;19.80
22322;BMP180;11328;53.928;18.522;2023-08-06T04:17:22;99073.00;;;19.70
22322;BMP180;11328;53.928;18.522;2023-08-06T04:19:52;99088.00;;;19.80
22322;BMP180;11328;53.928;18.522;2023-08-06T04:22:21;99082.00;;;19.80
22322;BMP180;11328;53.928;18.522;2023-08-06T04:24:48;99080.00;;;19.90
22322;BMP180;11328;53.928;18.522;2023-08-06T04:27:16;99080.00;;;19.90
22322;BMP180;11328;53.928;18.522;2023-08-06T04:29:43;99086.00;;;20.00
22322;BMP180;11328;53.928;18.522;2023-08-06T04:32:10;99067.00;;;20.10
22322;BMP180;11328;53.928;18.522;2023-08-06T04:34:37;99083.00;;;20.00
22322;BMP180;11328;53.928;18.522;2023-08-06T04:37:05;99073.00;;;19.90
22322;BMP180;11328;53.928;18.522;2023-08-06T04:39:32;99066.00;;;20.00
22322;BMP180;11328;53.928;18.522;2023-08-06T04:41:59;99037.00;;;20.20
22322;BMP180;11328;53.928;18.522;2023-08-06T04:44:26;99012.00;;;20.20
22322;BMP180;11328;53.928;18.522;2023-08-06T04:46:53;99003.00;;;20.20
22322;BMP180;11328;53.928;18.522;2023-08-06T04:49:24;98991.00;;;20.00
22322;BMP180;11328;53.928;18.522;2023-08-06T04:51:51;98987.00;;;20.10
22322;BMP180;11328;53.928;18.522;2023-08-06T04:54:18;98975.00;;;20.10
22322;BMP180;11328;53.928;18.522;2023-08-06T04:56:45;98982.00;;;20.10
22322;BMP180;11328;53.928;18.522;2023-08-06T04:59:12;98957.00;;;20.10
22322;BMP180;11328;53.928;18.522;2023-08-06T05:01:39;98968.00;;;20.20
22322;BMP180;11328;53.928;18.522;2023-08-06T05:04:06;98983.00;;;20.20
22322;BMP180;11328;53.928;18.522;2023-08-06T05:06:33;98999.00;;;20.10
22322;BMP180;11328;53.928;18.522;2023-08-06T05:09:00;98999.00;;;20.30
22322;BMP180;11328;53.928;18.522;2023-08-06T05:11:27;99006.00;;;20.30
22322;BMP180;11328;53.928;18.522;2023-08-06T05:13:54;98961.00;;;20.30
22322;BMP180;11328;53.928;18.522;2023-08-06T05:16:21;98875.00;;;20.30
22322;BMP180;11328;53.928;18.522;2023-08-06T05:18:48;98845.00;;;20.20
22322;BMP180;11328;53.928;18.522;2023-08-06T05:21:15;98855.00;;;20.20
22322;BMP180;11328;53.928;18.522;2023-08-06T05:23:43;98871.00;;;20.10
22322;BMP180;11328;53.928;18.522;2023-08-06T05:26:10;98879.00;;;20.10
22322;BMP180;11328;53.928;18.522;2023-08-06T05:28:37;98865.00;;;20.20
22322;BMP180;11328;53.928;18.522;2023-08-06T05:31:04;98864.00;;;20.10
22322;BMP180;11328;53.928;18.522;2023-08-06T05:33:31;98854.00;;;19.90
22322;BMP180;11328;53.928;18.522;2023-08-06T05:35:58;98885.00;;;19.80
22322;BMP180;11328;53.928;18.522;2023-08-06T05:38:26;98912.00;;;19.90
22322;BMP180;11328;53.928;18.522;2023-08-06T05:40:53;98915.00;;;20.00
22322;BMP180;11328;53.928;18.522;2023-08-06T05:43:20;98965.00;;;20.00
22322;BMP180;11328;53.928;18.522;2023-08-06T05:45:49;98992.00;;;20.00
22322;BMP180;11328;53.928;18.522;2023-08-06T05:48:16;98981.00;;;20.10
22322;BMP180;11328;53.928;18.522;2023-08-06T05:50:43;98976.00;;;20.00
22322;BMP180;11328;53.928;18.522;2023-08-06T05:53:10;98976.00;;;20.20
22322;BMP180;11328;53.928;18.522;2023-08-06T05:55:39;98977.00;;;20.10
22322;BMP180;11328;53.928;18.522;2023-08-06T05:58:05;98964.00;;;20.20
22322;BMP180;11328;53.928;18.522;2023-08-06T06:00:32;98964.00;;;20.20
22322;BMP180;11328;53.928;18.522;2023-08-06T06:02:59;98947.00;;;20.40
22322;BMP180;11328;53.928;18.522;2023-08-06T06:05:26;98949.00;;;20.30
22322;BMP180;11328;53.928;18.522;2023-08-06T06:07:53;98969.00;;;20.40
22322;BMP180;11328;53.928;18.522;2023-08-06T06:10:20;98964.00;;;20.30
22322;BMP180;11328;53.928;18.522;2023-08-06T06:12:47;98958.00;;;20.20
22322;BMP180;11328;53.928;18.522;2023-08-06T06:15:14;98938.00;;;20.30
22322;BMP180;11328;53.928;18.522;2023-08-06T06:17:41;98927.00;;;20.30
22322;BMP180;11328;53.928;18.522;2023-08-06T06:20:08;98913.00;;;20.30
22322;BMP180;11328;53.928;18.522;2023-08-06T06:22:35;98909.00;;;20.40
22322;BMP180;11328;53.928;18.522;2023-08-06T06:25:03;98892.00;;;20.50
22322;BMP180;11328;53.928;18.522;2023-08-06T06:27:30;98888.00;;;20.60
22322;BMP180;11328;53.928;18.522;2023-08-06T06:29:57;98890.00;;;20.60
22322;BMP180;11328;53.928;18.522;2023-08-06T06:32:24;98895.00;;;20.70
22322;BMP180;11328;53.928;18.522;2023-08-06T06:34:51;98882.00;;;20.60
22322;BMP180;11328;53.928;18.522;2023-08-06T06:37:18;98872.00;;;20.70
22322;BMP180;11328;53.928;18.522;2023-08-06T06:39:45;98868.00;;;20.70
22322;BMP180;11328;53.928;18.522;2023-08-06T06:42:12;98861.00;;;20.60
22322;BMP180;11328;53.928;18.522;2023-08-06T06:44:39;98861.00;;;20.60
22322;BMP180;11328;53.928;18.522;2023-08-06T06:47:06;98844.00;;;20.70
22322;BMP180;11328;53.928;18.522;2023-08-06T06:49:33;98834.00;;;20.70
22322;BMP180;11328;53.928;18.522;2023-08-06T06:52:00;98840.00;;;20.70
22322;BMP180;11328;53.928;18.522;2023-08-06T06:54:27;98840.00;;;20.60
22322;BMP180;11328;53.928;18.522;2023-08-06T06:56:54;98831.00;;;20.70
22322;BMP180;11328;53.928;18.522;2023-08-06T06:59:21;98830.00;;;20.80
22322;BMP180;11328;53.928;18.522;2023-08-06T07:01:47;98837.00;;;20.90
22322;BMP180;11328;53.928;18.522;2023-08-06T07:04:14;98833.00;;;20.90
22322;BMP180;11328;53.928;18.522;2023-08-06T07:06:41;98831.00;;;21.00
22322;BMP180;11328;53.928;18.522;2023-08-06T07:09:08;98819.00;;;21.00
22322;BMP180;11328;53.928;18.522;2023-08-06T07:11:35;98818.00;;;21.20
22322;BMP180;11328;53.928;18.522;2023-08-06T07:14:02;98809.00;;;21.20
22322;BMP180;11328;53.928;18.522;2023-08-06T07:16:29;98803.00;;;21.20
22322;BMP180;11328;53.928;18.522;2023-08-06T07:18:56;98801.00;;;21.10
22322;BMP180;11328;53.928;18.522;2023-08-06T07:21:23;98806.00;;;21.20
22322;BMP180;11328;53.928;18.522;2023-08-06T07:23:50;98795.00;;;21.30
22322;BMP180;11328;53.928;18.522;2023-08-06T07:26:18;98793.00;;;21.30
22322;BMP180;11328;53.928;18.522;2023-08-06T07:28:45;98793.00;;;21.30
22322;BMP180;11328;53.928;18.522;2023-08-06T07:31:12;98787.00;;;21.40
22322;BMP180;11328;53.928;18.522;2023-08-06T07:33:39;98781.00;;;21.40
22322;BMP180;11328;53.928;18.522;2023-08-06T07:36:12;98777.00;;;21.30
22322;BMP180;11328;53.928;18.522;2023-08-06T07:38:40;98774.00;;;21.40
22322;BMP180;11328;53.928;18.522;2023-08-06T07:41:08;98759.00;;;21.50
22322;BMP180;11328;53.928;18.522;2023-08-06T07:43:35;98761.00;;;21.50
22322;BMP180;11328;53.928;18.522;2023-08-06T07:46:03;98752.00;;;21.60
22322;BMP180;11328;53.928;18.522;2023-08-06T07:48:30;98745.00;;;21.60
22322;BMP180;11328;53.928;18.522;2023-08-06T07:50:57;98725.00;;;21.60
22322;BMP180;11328;53.928;18.522;2023-08-06T07:53:25;98723.00;;;21.60
22322;BMP180;11328;53.928;18.522;2023-08-06T07:55:58;98708.00;;;21.70
22322;BMP180;11328;53.928;18.522;2023-08-06T07:58:26;98719.00;;;21.80
22322;BMP180;11328;53.928;18.522;2023-08-06T08:00:53;98708.00;;;21.70
22322;BMP180;11328;53.928;18.522;2023-08-06T08:03:20;98713.00;;;21.60
22322;BMP180;11328;53.928;18.522;2023-08-06T08:05:47;98688.00;;;21.60
22322;BMP180;11328;53.928;18.522;2023-08-06T08:08:14;98715.00;;;21.60
22322;BMP180;11328;53.928;18.522;2023-08-06T08:10:42;98708.00;;;21.60
22322;BMP180;11328;53.928;18.522;2023-08-06T08:13:09;98700.00;;;21.70
22322;BMP180;11328;53.928;18.522;2023-08-06T08:15:36;98690.00;;;21.80
22322;BMP180;11328;53.928;18.522;2023-08-06T08:18:03;98698.00;;;21.80
22322;BMP180;11328;53.928;18.522;2023-08-06T08:20:30;98696.00;;;21.90
22322;BMP180;11328;53.928;18.522;2023-08-06T08:23:02;98690.00;;;21.80
22322;BMP180;11328;53.928;18.522;2023-08-06T08:25:29;98698.00;;;21.80
22322;BMP180;11328;53.928;18.522;2023-08-06T08:27:58;98687.00;;;22.00
22322;BMP180;11328;53.928;18.522;2023-08-06T08:30:25;98692.00;;;22.10
22322;BMP180;11328;53.928;18.522;2023-08-06T08:32:52;98687.00;;;22.10
22322;BMP180;11328;53.928;18.522;2023-08-06T08:35:19;98680.00;;;22.10
22322;BMP180;11328;53.928;18.522;2023-08-06T08:37:46;98680.00;;;22.10
22322;BMP180;11328;53.928;18.522;2023-08-06T08:40:15;98675.00;;;22.10
22322;BMP180;11328;53.928;18.522;2023-08-06T08:42:43;98660.00;;;22.10
22322;BMP180;11328;53.928;18.522;2023-08-06T08:45:14;98670.00;;;22.20
22322;BMP180;11328;53.928;18.522;2023-08-06T08:47:43;98664.00;;;22.20
22322;BMP180;11328;53.928;18.522;2023-08-06T08:50:11;98660.00;;;22.20
22322;BMP180;11328;53.928;18.522;2023-08-06T08:52:39;98651.00;;;22.30
22322;BMP180;11328;53.928;18.522;2023-08-06T08:55:08;98647.00;;;22.30
22322;BMP180;11328;53.928;18.522;2023-08-06T08:57:35;98646.00;;;22.30
22322;BMP180;11328;53.928;18.522;2023-08-06T09:00:04;98641.00;;;22.30
22322;BMP180;11328;53.928;18.522;2023-08-06T09:02:33;98622.00;;;22.30
22322;BMP180;11328;53.928;18.522;2023-08-06T09:05:04;98645.00;;;22.30
22322;BMP180;11328;53.928;18.522;2023-08-06T09:07:35;98641.00;;;22.40
22322;BMP180;11328;53.928;18.522;2023-08-06T09:10:10;98642.00;;;22.40
22322;BMP180;11328;53.928;18.522;2023-08-06T09:12:37;98632.00;;;22.50
22322;BMP180;11328;53.928;18.522;2023-08-06T09:15:05;98635.00;;;22.40
22322;BMP180;11328;53.928;18.522;2023-08-06T09:17:32;98631.00;;;22.40
22322;BMP180;11328;53.928;18.522;2023-08-06T09:20:08;98633.00;;;22.40
22322;BMP180;11328;53.928;18.522;2023-08-06T09:22:35;98630.00;;;22.50
22322;BMP180;11328;53.928;18.522;2023-08-06T09:25:03;98621.00;;;22.50
22322;BMP180;11328;53.928;18.522;2023-08-06T09:27:32;98631.00;;;22.50
22322;BMP180;11328;53.928;18.522;2023-08-06T09:29:59;98621.00;;;22.50
22322;BMP180;11328;53.928;18.522;2023-08-06T09:32:26;98619.00;;;22.50
22322;BMP180;11328;53.928;18.522;2023-08-06T09:34:57;98619.00;;;22.60
22322;BMP180;11328;53.928;18.522;2023-08-06T09:37:35;98613.00;;;22.60
22322;BMP180;11328;53.928;18.522;2023-08-06T09:40:03;98614.00;;;22.60
22322;BMP180;11328;53.928;18.522;2023-08-06T09:42:30;98604.00;;;22.60
22322;BMP180;11328;53.928;18.522;2023-08-06T09:45:06;98602.00;;;22.50
22322;BMP180;11328;53.928;18.522;2023-08-06T09:47:33;98599.00;;;22.50
22322;BMP180;11328;53.928;18.522;2023-08-06T09:50:00;98601.00;;;22.60
22322;BMP180;11328;53.928;18.522;2023-08-06T09:52:27;98590.00;;;22.60
22322;BMP180;11328;53.928;18.522;2023-08-06T09:54:55;98583.00;;;22.60
22322;BMP180;11328;53.928;18.522;2023-08-06T09:57:24;98577.00;;;22.70
22322;BMP180;11328;53.928;18.522;2023-08-06T09:59:52;98575.00;;;22.70
22322;BMP180;11328;53.928;18.522;2023-08-06T10:02:26;98578.00;;;22.70
22322;BMP180;11328;53.928;18.522;2023-08-06T10:04:57;98553.00;;;22.70
22322;BMP180;11328;53.928;18.522;2023-08-06T10:07:24;98561.00;;;22.70
22322;BMP180;11328;53.928;18.522;2023-08-06T10:09:51;98578.00;;;22.60
22322;BMP180;11328;53.928;18.522;2023-08-06T10:12:19;98544.00;;;22.50
22322;BMP180;11328;53.928;18.522;2023-08-06T10:14:48;98547.00;;;22.60
22322;BMP180;11328;53.928;18.522;2023-08-06T10:17:16;98542.00;;;22.50
22322;BMP180;11328;53.928;18.522;2023-08-06T10:19:45;98539.00;;;22.50
22322;BMP180;11328;53.928;18.522;2023-08-06T10:22:17;98549.00;;;22.50
22322;BMP180;11328;53.928;18.522;2023-08-06T10:24:53;98544.00;;;22.50
22322;BMP180;11328;53.928;18.522;2023-08-06T10:30:32;98529.00;;;22.60
22322;BMP180;11328;53.928;18.522;2023-08-06T10:33:02;98531.00;;;22.70
22322;BMP180;11328;53.928;18.522;2023-08-06T10:35:48;98530.00;;;22.60
22322;BMP180;11328;53.928;18.522;2023-08-06T10:38:22;98516.00;;;22.90
22322;BMP180;11328;53.928;18.522;2023-08-06T10:43:36;98512.00;;;23.20
22322;BMP180;11328;53.928;18.522;2023-08-06T10:46:11;98513.00;;;23.30
22322;BMP180;11328;53.928;18.522;2023-08-06T10:48:41;98512.00;;;23.50
22322;BMP180;11328;53.928;18.522;2023-08-06T10:51:10;98499.00;;;23.60
22322;BMP180;11328;53.928;18.522;2023-08-06T10:53:42;98500.00;;;23.70
22322;BMP180;11328;53.928;18.522;2023-08-06T10:56:27;98490.00;;;24.00
22322;BMP180;11328;53.928;18.522;2023-08-06T10:58:56;98484.00;;;24.10
22322;BMP180;11328;53.928;18.522;2023-08-06T11:01:24;98492.00;;;24.10
22322;BMP180;11328;53.928;18.522;2023-08-06T11:03:51;98491.00;;;24.10
22322;BMP180;11328;53.928;18.522;2023-08-06T11:06:21;98490.00;;;24.10
22322;BMP180;11328;53.928;18.522;2023-08-06T11:08:54;98482.00;;;24.20
22322;BMP180;11328;53.928;18.522;2023-08-06T11:11:23;98477.00;;;24.20
22322;BMP180;11328;53.928;18.522;2023-08-06T11:13:51;98468.00;;;24.50
22322;BMP180;11328;53.928;18.522;2023-08-06T11:16:23;98477.00;;;24.70
22322;BMP180;11328;53.928;18.522;2023-08-06T11:18:54;98475.00;;;24.80
22322;BMP180;11328;53.928;18.522;2023-08-06T11:21:23;98451.00;;;24.80
22322;BMP180;11328;53.928;18.522;2023-08-06T11:23:53;98471.00;;;25.10
22322;BMP180;11328;53.928;18.522;2023-08-06T11:26:21;98462.00;;;25.10
22322;BMP180;11328;53.928;18.522;2023-08-06T11:28:50;98461.00;;;25.10
22322;BMP180;11328;53.928;18.522;2023-08-06T11:31:24;98449.00;;;24.90
22322;BMP180;11328;53.928;18.522;2023-08-06T11:33:52;98428.00;;;25.00
22322;BMP180;11328;53.928;18.522;2023-08-06T11:36:33;98443.00;;;25.30
22322;BMP180;11328;53.928;18.522;2023-08-06T11:39:01;98439.00;;;25.10
22322;BMP180;11328;53.928;18.522;2023-08-06T11:41:30;98447.00;;;25.20
22322;BMP180;11328;53.928;18.522;2023-08-06T11:43:58;98429.00;;;25.10
22322;BMP180;11328;53.928;18.522;2023-08-06T11:46:25;98441.00;;;25.20
22322;BMP180;11328;53.928;18.522;2023-08-06T11:48:59;98439.00;;;25.40
22322;BMP180;11328;53.928;18.522;2023-08-06T11:51:26;98437.00;;;25.50
22322;BMP180;11328;53.928;18.522;2023-08-06T11:53:59;98436.00;;;25.60
22322;BMP180;11328;53.928;18.522;2023-08-06T11:56:27;98423.00;;;25.70
22322;BMP180;11328;53.928;18.522;2023-08-06T11:58:55;98425.00;;;25.60
22322;BMP180;11328;53.928;18.522;2023-08-06T12:01:22;98418.00;;;25.50
22322;BMP180;11328;53.928;18.522;2023-08-06T12:03:49;98411.00;;;25.70
22322;BMP180;11328;53.928;18.522;2023-08-06T12:06:16;98397.00;;;25.90
22322;BMP180;11328;53.928;18.522;2023-08-06T12:08:43;98401.00;;;26.10
22322;BMP180;11328;53.928;18.522;2023-08-06T12:11:11;98401.00;;;26.40
22322;BMP180;11328;53.928;18.522;2023-08-06T12:13:38;98407.00;;;26.20
22322;BMP180;11328;53.928;18.522;2023-08-06T12:16:05;98409.00;;;26.30
22322;BMP180;11328;53.928;18.522;2023-08-06T12:18:32;98393.00;;;26.10
22322;BMP180;11328;53.928;18.522;2023-08-06T12:20:58;98386.00;;;26.00
22322;BMP180;11328;53.928;18.522;2023-08-06T12:23:25;98377.00;;;26.20
22322;BMP180;11328;53.928;18.522;2023-08-06T12:25:52;98384.00;;;26.20
22322;BMP180;11328;53.928;18.522;2023-08-06T12:28:20;98380.00;;;26.20
22322;BMP180;11328;53.928;18.522;2023-08-06T12:30:50;98360.00;;;26.20
22322;BMP180;11328;53.928;18.522;2023-08-06T12:33:18;98365.00;;;26.10
22322;BMP180;11328;53.928;18.522;2023-08-06T12:35:45;98364.00;;;26.20
22322;BMP180;11328;53.928;18.522;2023-08-06T12:38:12;98367.00;;;26.30
22322;BMP180;11328;53.928;18.522;2023-08-06T12:40:40;98360.00;;;26.40
22322;BMP180;11328;53.928;18.522;2023-08-06T12:43:09;98356.00;;;26.60
22322;BMP180;11328;53.928;18.522;2023-08-06T12:45:36;98355.00;;;26.60
22322;BMP180;11328;53.928;18.522;2023-08-06T12:48:05;98354.00;;;26.60
22322;BMP180;11328;53.928;18.522;2023-08-06T12:50:34;98347.00;;;26.70
22322;BMP180;11328;53.928;18.522;2023-08-06T12:53:04;98338.00;;;26.90
22322;BMP180;11328;53.928;18.522;2023-08-06T12:55:32;98335.00;;;27.00
22322;BMP180;11328;53.928;18.522;2023-08-06T12:57:59;98326.00;;;27.10
22322;BMP180;11328;53.928;18.522;2023-08-06T13:00:27;98335.00;;;27.10
22322;BMP180;11328;53.928;18.522;2023-08-06T13:02:54;98327.00;;;27.00
22322;BMP180;11328;53.928;18.522;2023-08-06T13:05:21;98316.00;;;27.10
22322;BMP180;11328;53.928;18.522;2023-08-06T13:07:48;98317.00;;;27.30
22322;BMP180;11328;53.928;18.522;2023-08-06T13:10:15;98304.00;;;27.40
22322;BMP180;11328;53.928;18.522;2023-08-06T13:12:44;98302.00;;;27.50
22322;BMP180;11328;53.928;18.522;2023-08-06T13:15:11;98315.00;;;27.50
22322;BMP180;11328;53.928;18.522;2023-08-06T13:17:38;98295.00;;;27.60
22322;BMP180;11328;53.928;18.522;2023-08-06T13:20:06;98301.00;;;27.70
22322;BMP180;11328;53.928;18.522;2023-08-06T13:22:35;98305.00;;;27.60
22322;BMP180;11328;53.928;18.522;2023-08-06T13:25:03;98300.00;;;27.80
22322;BMP180;11328;53.928;18.522;2023-08-06T13:27:30;98298.00;;;27.80
22322;BMP180;11328;53.928;18.522;2023-08-06T13:29:57;98289.00;;;27.80
22322;BMP180;11328;53.928;18.522;2023-08-06T13:32:24;98272.00;;;27.90
22322;BMP180;11328;53.928;18.522;2023-08-06T13:34:51;98279.00;;;27.90
22322;BMP180;11328;53.928;18.522;2023-08-06T13:37:18;98274.00;;;27.90
22322;BMP180;11328;53.928;18.522;2023-08-06T13:39:45;98295.00;;;28.10
22322;BMP180;11328;53.928;18.522;2023-08-06T13:42:11;98294.00;;;28.10
22322;BMP180;11328;53.928;18.522;2023-08-06T13:44:38;98289.00;;;28.40
22322;BMP180;11328;53.928;18.522;2023-08-06T13:47:05;98288.00;;;28.50
22322;BMP180;11328;53.928;18.522;2023-08-06T13:49:33;98272.00;;;28.70
22322;BMP180;11328;53.928;18.522;2023-08-06T13:51:59;98265.00;;;28.90
22322;BMP180;11328;53.928;18.522;2023-08-06T13:54:46;98258.00;;;28.90
22322;BMP180;11328;53.928;18.522;2023-08-06T13:57:13;98249.00;;;28.80
22322;BMP180;11328;53.928;18.522;2023-08-06T13:59:40;98242.00;;;29.00
22322;BMP180;11328;53.928;18.522;2023-08-06T14:02:08;98233.00;;;29.10
22322;BMP180;11328;53.928;18.522;2023-08-06T14:04:35;98247.00;;;29.30
22322;BMP180;11328;53.928;18.522;2023-08-06T14:07:02;98256.00;;;29.40
22322;BMP180;11328;53.928;18.522;2023-08-06T14:09:29;98242.00;;;29.50
22322;BMP180;11328;53.928;18.522;2023-08-06T14:11:57;98236.00;;;29.40